Time;durP1;ratioP1;P1;durP2;ratioP2;P2;SDS_P1;SDS_P2;PMS_P1;PMS_P2;Temp;Humidity;BMP_temperature;BMP_pressure;BME280_temperature;BME280_humidity;BME280_pressure;Samples;Min_cycle;Max_cycle;Signal;HPM_P1;HPM_P2
2021/09/01 00:03:18;;;;;;;1.30;1.20;;;;;;;14.40;100.00;100192.53;20899958;28;20676;-65
2021/09/01 00:13:21;;;;;;;1.10;1.00;;;;;;;14.44;100.00;100193.97;20874706;28;20231;-66
2021/09/01 00:23:25;;;;;;;0.80;0.80;;;;;;;14.35;100.00;100200.09;20897655;28;20219;-65
2021/09/01 00:33:27;;;;;;;1.00;1.00;;;;;;;14.29;100.00;100200.56;20863140;28;20235;-65
2021/09/01 00:43:31;;;;;;;1.37;1.10;;;;;;;14.27;100.00;100208.75;20832945;28;20222;-66
2021/09/01 00:53:34;;;;;;;1.20;1.20;;;;;;;14.21;100.00;100224.50;20879573;28;20224;-66
2021/09/01 01:03:38;;;;;;;1.40;1.30;;;;;;;14.13;100.00;100226.97;20888749;28;20744;-66
2021/09/01 01:13:41;;;;;;;1.20;1.10;;;;;;;14.07;100.00;100234.50;20886204;28;20742;-66
2021/09/01 01:23:45;;;;;;;1.00;1.00;;;;;;;14.03;100.00;100243.78;20863462;28;20235;-65
2021/09/01 01:33:49;;;;;;;1.13;1.03;;;;;;;14.00;100.00;100254.78;20820150;28;20561;-65
2021/09/01 01:43:52;;;;;;;0.87;0.87;;;;;;;14.00;100.00;100244.03;20811445;28;20247;-65
2021/09/01 01:53:55;;;;;;;0.83;0.83;;;;;;;13.98;100.00;100258.56;20891883;28;20242;-66
2021/09/01 02:03:58;;;;;;;1.07;1.07;;;;;;;13.96;100.00;100250.63;20829482;28;20232;-66
2021/09/01 02:14:02;;;;;;;1.00;1.00;;;;;;;13.92;100.00;100259.88;20808795;28;20589;-66
2021/09/01 02:24:04;;;;;;;1.50;1.40;;;;;;;13.89;100.00;100268.16;20790622;28;20693;-66
2021/09/01 02:34:08;;;;;;;1.70;1.00;;;;;;;13.82;100.00;100272.31;20803634;28;20331;-65
2021/09/01 02:44:11;;;;;;;1.60;1.50;;;;;;;13.80;100.00;100284.97;20831595;28;20223;-65
2021/09/01 02:54:15;;;;;;;1.93;1.40;;;;;;;13.75;100.00;100287.19;20892366;28;20231;-66
2021/09/01 03:04:17;;;;;;;1.57;1.03;;;;;;;13.75;100.00;100292.56;20903685;28;20257;-66
2021/09/01 03:14:21;;;;;;;1.60;1.30;;;;;;;13.70;100.00;100295.56;20882612;28;20740;-66
2021/09/01 03:24:23;;;;;;;1.30;1.20;;;;;;;13.72;100.00;100308.88;20908677;28;20235;-65
2021/09/01 03:34:27;;;;;;;1.53;1.43;;;;;;;13.68;100.00;100327.00;20893914;28;20231;-65
2021/09/01 03:44:29;;;;;;;1.30;1.30;;;;;;;13.66;100.00;100344.19;20842188;28;20226;-66
2021/09/01 03:54:33;;;;;;;1.77;1.67;;;;;;;13.64;100.00;100351.53;20888385;28;21043;-66
2021/09/01 04:04:36;;;;;;;4.23;3.20;;;;;;;13.49;100.00;100358.03;20898800;28;20237;-68
2021/09/01 04:14:40;;;;;;;6.73;4.23;;;;;;;13.44;100.00;100378.97;20877126;28;20585;-65
2021/09/01 04:24:42;;;;;;;7.23;5.40;;;;;;;13.41;100.00;100384.56;20865957;28;20273;-62
2021/09/01 04:34:46;;;;;;;10.93;7.23;;;;;;;13.36;100.00;100402.81;20792928;28;20234;-63
2021/09/01 04:44:49;;;;;;;11.77;8.43;;;;;;;13.41;100.00;100401.50;20845421;28;20229;-64
2021/09/01 04:54:53;;;;;;;14.33;9.50;;;;;;;13.41;100.00;100424.75;20877660;28;20243;-66
2021/09/01 05:04:56;;;;;;;13.67;9.63;;;;;;;13.38;100.00;100438.41;20842223;28;20219;-66
2021/09/01 05:14:59;;;;;;;21.00;12.03;;;;;;;13.42;100.00;100434.50;20832206;28;20327;-68
2021/09/01 05:25:05;;;;;;;16.07;11.10;;;;;;;13.44;100.00;100435.25;20806361;28;20333;-68
2021/09/01 05:35:10;;;;;;;18.03;12.53;;;;;;;13.49;100.00;100442.00;20805867;28;20235;-70
2021/09/01 05:45:13;;;;;;;16.97;12.30;;;;;;;13.58;100.00;100461.91;20790958;28;20357;-71
2021/09/01 05:55:17;;;;;;;15.00;11.20;;;;;;;13.55;100.00;100471.03;20809064;28;20235;-71
2021/09/01 06:05:21;;;;;;;16.23;11.67;;;;;;;13.80;100.00;100472.75;20786901;28;20247;-69
2021/09/01 06:15:26;;;;;;;12.20;9.63;;;;;;;13.76;100.00;100491.88;20810174;28;20700;-72
2021/09/01 06:25:29;;;;;;;12.23;9.73;;;;;;;13.74;100.00;100497.34;20806743;28;20219;-71
2021/09/01 06:35:33;;;;;;;10.87;9.50;;;;;;;13.93;100.00;100515.59;20905194;28;20231;-72
2021/09/01 06:45:37;;;;;;;11.30;8.93;;;;;;;14.27;100.00;100511.19;20891869;28;20330;-69
2021/09/01 06:55:41;;;;;;;9.57;7.43;;;;;;;14.77;100.00;100523.44;20895267;28;20666;-70
2021/09/01 07:05:44;;;;;;;8.07;7.27;;;;;;;15.28;100.00;100529.19;20897955;28;20246;-68
2021/09/01 07:15:48;;;;;;;5.60;5.10;;;;;;;15.68;100.00;100536.75;20883219;28;20234;-69
2021/09/01 07:25:50;;;;;;;4.20;3.80;;;;;;;15.55;100.00;100552.19;20902911;28;20223;-71
2021/09/01 07:35:54;;;;;;;3.43;3.13;;;;;;;15.93;100.00;100571.44;20878751;28;20238;-68
2021/09/01 07:45:57;;;;;;;2.83;2.50;;;;;;;16.83;100.00;100583.53;20901634;28;20669;-72
2021/09/01 07:56:01;;;;;;;2.23;2.13;;;;;;;17.36;100.00;100569.91;20879963;28;20242;-67
2021/09/01 08:06:04;;;;;;;2.33;2.13;;;;;;;17.92;100.00;100569.38;20898522;28;20255;-67
2021/09/01 08:16:09;;;;;;;2.10;2.00;;;;;;;18.06;100.00;100585.19;20883698;28;20227;-67
2021/09/01 08:26:11;;;;;;;2.33;2.17;;;;;;;17.77;100.00;100595.06;20890055;28;20222;-66
2021/09/01 08:36:15;;;;;;;3.03;2.53;;;;;;;18.04;100.00;100613.31;20888831;28;20237;-67
2021/09/01 08:46:18;;;;;;;5.23;2.90;;;;;;;18.32;100.00;100624.19;20879604;28;20327;-66
2021/09/01 08:56:21;;;;;;;3.00;2.70;;;;;;;19.17;100.00;100625.28;20894867;28;20257;-66
2021/09/01 09:06:24;;;;;;;5.63;3.57;;;;;;;18.56;100.00;100639.97;20871673;28;20371;-68
2021/09/01 09:16:28;;;;;;;4.00;3.60;;;;;;;19.12;100.00;100623.00;20893477;28;20242;-67
2021/09/01 09:26:33;;;;;;;4.10;3.80;;;;;;;18.59;100.00;100644.28;20868188;28;20230;-67
2021/09/01 09:36:38;;;;;;;4.43;3.87;;;;;;;19.54;100.00;100649.72;20890628;28;20641;-67
2021/09/01 09:46:48;;;;;;;5.10;4.10;;;;;;;19.40;100.00;100669.94;20876052;28;20237;-67
2021/09/01 09:57:05;;;;;;;4.83;4.10;;;;;;;19.18;100.00;100656.75;20865074;28;20242;-67
2021/09/01 10:07:09;;;;;;;3.73;3.40;;;;;;;19.62;97.95;100672.31;20881689;28;20594;-68
2021/09/01 10:17:13;;;;;;;4.57;3.63;;;;;;;19.48;91.75;100671.91;20873813;28;20230;-67
2021/09/01 10:27:19;;;;;;;3.67;3.27;;;;;;;19.58;99.13;100681.72;20887651;28;20253;-68
2021/09/01 10:37:39;;;;;;;3.57;3.27;;;;;;;20.32;87.93;100678.94;20864766;28;20241;-68
2021/09/01 10:48:08;;;;;;;4.57;3.07;;;;;;;20.51;79.86;100685.28;20888642;28;20245;-68
2021/09/01 10:58:24;;;;;;;2.80;2.50;;;;;;;20.61;81.72;100680.66;20864640;28;20235;-67
2021/09/01 11:08:26;;;;;;;2.63;2.43;;;;;;;21.16;82.06;100678.59;20901205;28;20747;-67
2021/09/01 11:18:30;;;;;;;3.60;3.00;;;;;;;20.52;80.86;100693.28;20882112;28;20679;-68
2021/09/01 11:28:33;;;;;;;3.00;2.27;;;;;;;20.81;76.74;100693.03;20900803;28;20231;-67
2021/09/01 11:38:45;;;;;;;2.13;1.93;;;;;;;20.64;76.11;100719.16;20888021;28;20596;-68
2021/09/01 11:48:47;;;;;;;5.80;2.10;;;;;;;21.07;72.11;100714.81;20893275;28;20319;-69
2021/09/01 11:58:59;;;;;;;2.00;1.80;;;;;;;21.33;68.38;100704.03;20893146;28;20231;-70
2021/09/01 12:09:03;;;;;;;1.80;1.70;;;;;;;21.82;77.85;100705.19;20877528;28;20298;-70
2021/09/01 12:19:13;;;;;;;3.27;1.87;;;;;;;21.22;72.27;100728.72;20898422;28;20232;-70
2021/09/01 12:29:29;;;;;;;2.60;1.40;;;;;;;21.10;72.80;100720.78;20874519;28;20631;-70
2021/09/01 12:39:51;;;;;;;2.40;1.63;;;;;;;21.47;70.49;100723.31;20896946;28;20314;-70
2021/09/01 12:49:54;;;;;;;2.30;1.60;;;;;;;21.93;73.36;100713.91;20872156;28;20254;-70
2021/09/01 12:59:58;;;;;;;2.30;1.33;;;;;;;21.70;71.63;100750.81;20896247;28;20701;-70
2021/09/01 13:10:00;;;;;;;2.23;1.50;;;;;;;20.62;71.90;100732.03;20874567;28;20235;-70
2021/09/01 13:20:06;;;;;;;1.70;1.60;;;;;;;20.89;75.64;100727.56;20889589;28;20232;-71
2021/09/01 13:30:11;;;;;;;2.80;1.97;;;;;;;20.94;74.66;100747.78;20881682;28;20357;-71
2021/09/01 13:40:15;;;;;;;1.87;1.70;;;;;;;20.91;80.83;100737.22;20881880;28;20239;-71
2021/09/01 13:50:18;;;;;;;1.63;1.23;;;;;;;20.70;79.81;100714.97;20888081;28;20231;-70
2021/09/01 14:00:30;;;;;;;2.20;1.30;;;;;;;20.71;73.88;100732.97;20863323;28;20235;-71
2021/09/01 14:10:33;;;;;;;1.33;1.17;;;;;;;20.02;74.11;100752.44;20891299;28;20226;-70
2021/09/01 14:20:38;;;;;;;2.03;0.90;;;;;;;19.75;72.93;100745.97;20868755;28;20242;-70
2021/09/01 14:30:41;;;;;;;2.50;1.00;;;;;;;19.89;71.62;100762.75;20889113;28;20631;-69
2021/09/01 14:40:45;;;;;;;1.90;1.37;;;;;;;19.65;73.83;100765.94;20877088;28;20234;-67
2021/09/01 14:50:49;;;;;;;2.17;1.07;;;;;;;19.69;75.55;100757.38;20902859;28;20296;-67
2021/09/01 15:00:53;;;;;;;1.70;0.90;;;;;;;19.44;75.62;100749.88;20861633;28;20715;-66
2021/09/01 15:10:55;;;;;;;2.37;1.13;;;;;;;19.33;74.76;100785.19;20891207;28;20239;-65
2021/09/01 15:20:59;;;;;;;2.00;1.13;;;;;;;19.06;79.83;100745.34;20836938;28;20239;-66
2021/09/01 15:31:01;;;;;;;1.73;1.63;;;;;;;18.84;77.93;100741.03;20821735;28;20289;-66
2021/09/01 15:41:06;;;;;;;2.17;1.30;;;;;;;18.80;78.80;100750.44;20807402;28;20227;-66
2021/09/01 15:51:08;;;;;;;1.80;1.10;;;;;;;18.67;80.45;100760.66;20827767;28;20227;-66
2021/09/01 16:01:14;;;;;;;3.17;1.73;;;;;;;18.45;83.73;100756.34;20828655;28;20288;-65
2021/09/01 16:11:23;;;;;;;3.00;1.70;;;;;;;18.08;86.34;100753.38;20821894;28;20309;-65
2021/09/01 16:21:30;;;;;;;1.90;1.50;;;;;;;17.90;88.48;100768.47;20831478;28;20241;-64
2021/09/01 16:31:37;;;;;;;1.73;1.63;;;;;;;17.59;94.33;100745.97;20892991;28;20305;-65
2021/09/01 16:41:49;;;;;;;3.23;1.80;;;;;;;17.30;100.00;100756.56;20873608;28;20334;-66
2021/09/01 16:51:59;;;;;;;3.20;2.10;;;;;;;16.93;100.00;100775.84;20893976;28;20265;-65
2021/09/01 17:02:05;;;;;;;2.10;1.90;;;;;;;16.38;100.00;100779.53;20873671;28;20484;-65
2021/09/01 17:12:08;;;;;;;1.80;1.70;;;;;;;15.91;100.00;100791.41;20885462;28;20608;-64
2021/09/01 17:22:12;;;;;;;1.93;1.63;;;;;;;15.51;100.00;100782.88;20859896;28;20263;-63
2021/09/01 17:32:16;;;;;;;1.50;1.40;;;;;;;15.28;100.00;100798.09;20845557;28;20725;-62
2021/09/01 17:42:19;;;;;;;2.10;1.80;;;;;;;15.01;100.00;100802.84;20890028;28;20238;-66
2021/09/01 17:52:22;;;;;;;2.10;1.70;;;;;;;14.69;100.00;100800.75;20894649;28;20672;-66
2021/09/01 18:02:27;;;;;;;2.20;2.00;;;;;;;14.61;100.00;100834.50;20907254;28;20734;-62
2021/09/01 18:12:31;;;;;;;3.23;2.93;;;;;;;14.50;100.00;100837.94;20895646;28;20230;-67
2021/09/01 18:22:38;;;;;;;2.80;2.60;;;;;;;14.38;100.00;100850.41;20926564;28;20223;-67
2021/09/01 18:32:42;;;;;;;2.60;2.20;;;;;;;14.01;100.00;100857.50;20906084;28;20956;-67
2021/09/01 18:42:49;;;;;;;2.43;2.10;;;;;;;13.88;100.00;100864.72;20924366;28;20250;-67
2021/09/01 19:02:52;;;;;;;2.57;2.37;;;;;;;13.14;100.00;100870.66;20648875;28;20584;-60
2021/09/01 19:12:55;;;;;;;2.63;2.43;;;;;;;13.07;100.00;100874.66;20649303;28;20227;-63
2021/09/01 19:22:59;;;;;;;2.60;2.40;;;;;;;13.17;100.00;100875.81;20641120;28;20361;-62
2021/09/01 19:33:02;;;;;;;2.73;2.53;;;;;;;13.05;100.00;100879.25;20654193;28;20283;-66
2021/09/01 19:43:07;;;;;;;2.73;2.53;;;;;;;13.41;100.00;100883.16;20634289;28;20240;-65
2021/09/01 19:53:12;;;;;;;3.60;3.30;;;;;;;13.77;100.00;100886.03;20613895;28;20811;-66
2021/09/01 20:03:18;;;;;;;3.03;2.70;;;;;;;13.78;100.00;100884.22;20650055;28;64032;-66
2021/09/01 20:13:21;;;;;;;3.63;2.70;;;;;;;13.61;100.00;100874.66;20679140;28;20237;-66
2021/09/01 20:23:26;;;;;;;3.13;2.83;;;;;;;13.94;100.00;100890.25;20661804;28;20340;-65
2021/09/01 20:43:36;;;;;;;3.87;3.57;;;;;;;14.35;100.00;100900.81;21078554;27;20544;-66
2021/09/01 20:53:41;;;;;;;4.13;3.73;;;;;;;14.39;100.00;100916.59;21051118;28;20424;-67
2021/09/01 21:03:46;;;;;;;3.57;3.27;;;;;;;14.19;100.00;100924.31;21063897;28;20420;-67
2021/09/01 21:13:48;;;;;;;6.40;3.50;;;;;;;13.89;100.00;100944.22;21010665;27;20362;-67
2021/09/01 21:23:53;;;;;;;4.90;3.73;;;;;;;13.68;100.00;100951.06;21103864;28;20237;-68
2021/09/01 21:33:56;;;;;;;4.30;3.90;;;;;;;13.40;100.00;100946.69;21111481;28;20925;-69
2021/09/01 21:44:01;;;;;;;4.53;3.90;;;;;;;13.16;100.00;100957.16;21129831;28;20228;-71
2021/09/01 21:54:04;;;;;;;7.27;4.07;;;;;;;12.95;100.00;100971.91;21061671;28;20776;-68
2021/09/01 22:04:10;;;;;;;5.03;4.13;;;;;;;12.60;100.00;100975.00;21067944;28;20290;-68
2021/09/01 22:14:12;;;;;;;5.13;3.90;;;;;;;12.29;100.00;100977.84;21065153;28;20252;-68
2021/09/01 22:24:17;;;;;;;3.87;3.07;;;;;;;12.00;100.00;100976.06;21059041;28;20685;-68
2021/09/01 22:34:19;;;;;;;3.67;3.37;;;;;;;11.77;100.00;100991.66;21069248;28;20233;-68
2021/09/01 22:44:23;;;;;;;5.47;3.40;;;;;;;11.58;100.00;100977.63;21048147;28;20218;-68
2021/09/01 22:54:26;;;;;;;4.47;3.57;;;;;;;11.37;100.00;100985.03;21059348;28;20308;-68
2021/09/01 23:04:30;;;;;;;4.73;3.83;;;;;;;11.24;100.00;100988.47;21042425;28;20714;-68
2021/09/01 23:14:37;;;;;;;5.30;3.93;;;;;;;11.09;100.00;100990.22;21063532;28;20767;-66
2021/09/01 23:24:41;;;;;;;5.10;4.17;;;;;;;11.06;100.00;100990.38;21048629;28;20316;-71
2021/09/01 23:34:43;;;;;;;4.53;3.77;;;;;;;11.03;100.00;100996.75;21055018;28;20297;-68
2021/09/01 23:44:47;;;;;;;5.27;3.93;;;;;;;11.14;100.00;100990.81;21054902;28;20884;-69
2021/09/01 23:54:50;;;;;;;4.03;3.73;;;;;;;11.26;100.00;100997.28;21044904;28;20240;-66
